Lucinda Point, Queensland

9:13 AM AEST on March 03, 2015 (GMT +1000)
Townsville International | Change Station
CLOSE
Current Station
Airport
Location: Townsville,
Elevation: 20 ft
Nearby Weather Stations

Elev 20 ft 19.25 °S, 146.77 °E | Updated 13 minutes ago

Scattered Clouds
Scattered Clouds
84 °F
Feels Like 87 °F
N
8
Wind Variable Wind from SE

Today
High -- | Low -- °F
--% Chance of Precip.
Yesterday
High -- | Low -- °F
Precip. -- in
6:13 AM 6:39 PM
Waxing Gibbous, 93% visible
Pressure 29.86 in
Visibility 6.2 miles
Clouds Scattered Clouds 3800 ft
Scattered Clouds 6000 ft
Heat Index 87 °F
Dew Point 68 °F
Humidity 58%
Rainfall 0.00 in
Snow Depth Not available.
UV 4 out of 12
Pollen Not available.
Air Quality Not available.
Flu Activity Not available.
METAR YBTL 022300Z 13007KT 9999 SCT038 SCT060 29/20 Q1011 RMK DISTANT SHOWERS

More Conditions Fewer Conditions

Pressure 29.86 in
Visibility 6.2 miles
Clouds Scattered Clouds 3800 ft
Scattered Clouds 6000 ft
Heat Index 87 °F
Dew Point 68 °F
Humidity 58%
Rainfall 0.00 in
Snow Depth Not available.
UV 4 out of 12
Pollen Not available.
Air Quality Not available.
Flu Activity Not available.
METAR YBTL 022300Z 13007KT 9999 SCT038 SCT060 29/20 Q1011 RMK DISTANT SHOWERS

More Conditions Fewer Conditions

10-Day Weather Forecast

Almanac

Astronomy

Mar. 03, 2015 Rise Set
Actual Time
Civil Twilight
Nautical Twilight
Astronomical Twilight
Moon
Length of Visible Light
Length of Day
Tomorrow will be .
, % of the Moon is Illuminated

Today's Extremes

Country Highs Country Lows

Community

WunderPhotos

Upload Photos

1,801,995 photos uploaded!

WunderBlogs® & News

Nearby

Air Quality

  Air Quality AQ Index Pollutant
Not available.

Snow Depth

Station Depth Elevation

Earthquake Activity

City Distance Mag. Time & Date
Minimum magnitude displayed is 2.5.

Coastal Water Temperatures

Place Temperature

Nearby Weather Stations